sensor_id;sensor_type;location;lat;lon;timestamp;temperature;humidity
40822;DHT22;26542;50.836;5.356;2022-08-01T00:01:11;22.20;99.10
40822;DHT22;26542;50.836;5.356;2022-08-01T00:03:39;22.20;99.20
40822;DHT22;26542;50.836;5.356;2022-08-01T00:06:05;22.20;99.10
40822;DHT22;26542;50.836;5.356;2022-08-01T00:08:33;22.10;99.10
40822;DHT22;26542;50.836;5.356;2022-08-01T00:10:59;22.10;99.20
40822;DHT22;26542;50.836;5.356;2022-08-01T00:13:25;22.10;99.40
40822;DHT22;26542;50.836;5.356;2022-08-01T00:15:51;22.00;99.50
40822;DHT22;26542;50.836;5.356;2022-08-01T00:18:17;22.10;99.50
40822;DHT22;26542;50.836;5.356;2022-08-01T00:20:42;22.00;99.50
40822;DHT22;26542;50.836;5.356;2022-08-01T00:23:08;22.10;99.40
40822;DHT22;26542;50.836;5.356;2022-08-01T00:25:34;22.00;99.60
40822;DHT22;26542;50.836;5.356;2022-08-01T00:28:00;22.00;99.50
40822;DHT22;26542;50.836;5.356;2022-08-01T00:30:28;22.10;99.10
40822;DHT22;26542;50.836;5.356;2022-08-01T00:32:53;22.00;99.20
40822;DHT22;26542;50.836;5.356;2022-08-01T00:35:22;22.10;99.20
40822;DHT22;26542;50.836;5.356;2022-08-01T00:37:48;22.10;99.20
40822;DHT22;26542;50.836;5.356;2022-08-01T00:40:17;22.00;99.40
40822;DHT22;26542;50.836;5.356;2022-08-01T00:42:42;22.00;99.40
40822;DHT22;26542;50.836;5.356;2022-08-01T00:45:08;21.90;99.50
40822;DHT22;26542;50.836;5.356;2022-08-01T00:47:34;22.00;99.30
40822;DHT22;26542;50.836;5.356;2022-08-01T00:50:00;21.90;99.60
40822;DHT22;26542;50.836;5.356;2022-08-01T00:52:26;21.90;99.60
40822;DHT22;26542;50.836;5.356;2022-08-01T00:54:52;21.90;99.50
40822;DHT22;26542;50.836;5.356;2022-08-01T00:57:20;21.80;99.60
40822;DHT22;26542;50.836;5.356;2022-08-01T00:59:48;21.70;99.80
40822;DHT22;26542;50.836;5.356;2022-08-01T01:02:14;21.80;99.70
40822;DHT22;26542;50.836;5.356;2022-08-01T01:04:42;21.70;99.70
40822;DHT22;26542;50.836;5.356;2022-08-01T01:15:10;21.60;99.90
40822;DHT22;26542;50.836;5.356;2022-08-01T01:18:47;21.50;99.90
40822;DHT22;26542;50.836;5.356;2022-08-01T01:27:00;21.60;99.90
40822;DHT22;26542;50.836;5.356;2022-08-01T01:29:31;21.60;99.90
40822;DHT22;26542;50.836;5.356;2022-08-01T01:32:06;21.60;99.90
40822;DHT22;26542;50.836;5.356;2022-08-01T01:34:34;21.60;99.90
40822;DHT22;26542;50.836;5.356;2022-08-01T01:37:07;21.60;99.90
40822;DHT22;26542;50.836;5.356;2022-08-01T01:39:35;21.60;99.90
40822;DHT22;26542;50.836;5.356;2022-08-01T01:42:03;21.60;99.90
40822;DHT22;26542;50.836;5.356;2022-08-01T01:44:30;21.60;99.90
40822;DHT22;26542;50.836;5.356;2022-08-01T01:46:56;21.60;99.90
40822;DHT22;26542;50.836;5.356;2022-08-01T01:49:26;21.60;99.90
40822;DHT22;26542;50.836;5.356;2022-08-01T01:51:55;21.70;99.90
40822;DHT22;26542;50.836;5.356;2022-08-01T01:54:23;21.70;99.90
40822;DHT22;26542;50.836;5.356;2022-08-01T01:56:52;21.80;99.90
40822;DHT22;26542;50.836;5.356;2022-08-01T01:59:21;21.80;99.90
40822;DHT22;26542;50.836;5.356;2022-08-01T02:01:53;21.80;99.90
40822;DHT22;26542;50.836;5.356;2022-08-01T02:04:20;21.60;99.90
40822;DHT22;26542;50.836;5.356;2022-08-01T02:06:50;21.70;99.90
40822;DHT22;26542;50.836;5.356;2022-08-01T02:09:19;21.80;99.90
40822;DHT22;26542;50.836;5.356;2022-08-01T02:11:47;21.70;99.90
40822;DHT22;26542;50.836;5.356;2022-08-01T02:14:13;21.70;99.90
40822;DHT22;26542;50.836;5.356;2022-08-01T02:16:42;21.60;99.90
40822;DHT22;26542;50.836;5.356;2022-08-01T02:19:08;21.60;99.90
40822;DHT22;26542;50.836;5.356;2022-08-01T02:24:20;21.50;99.90
40822;DHT22;26542;50.836;5.356;2022-08-01T02:26:51;21.40;99.90
40822;DHT22;26542;50.836;5.356;2022-08-01T02:29:29;21.40;99.90
40822;DHT22;26542;50.836;5.356;2022-08-01T02:31:58;21.40;99.90
40822;DHT22;26542;50.836;5.356;2022-08-01T02:34:28;21.40;99.90
40822;DHT22;26542;50.836;5.356;2022-08-01T02:36:58;21.40;99.90
40822;DHT22;26542;50.836;5.356;2022-08-01T02:39:26;21.40;99.90
40822;DHT22;26542;50.836;5.356;2022-08-01T02:41:59;21.40;99.90
40822;DHT22;26542;50.836;5.356;2022-08-01T02:44:30;21.40;99.90
40822;DHT22;26542;50.836;5.356;2022-08-01T02:47:01;21.30;99.90
40822;DHT22;26542;50.836;5.356;2022-08-01T02:49:33;21.40;99.90
40822;DHT22;26542;50.836;5.356;2022-08-01T02:52:01;21.40;99.90
40822;DHT22;26542;50.836;5.356;2022-08-01T02:54:29;21.30;99.90
40822;DHT22;26542;50.836;5.356;2022-08-01T02:56:56;21.40;99.90
40822;DHT22;26542;50.836;5.356;2022-08-01T02:59:24;21.20;99.90
40822;DHT22;26542;50.836;5.356;2022-08-01T03:01:54;21.20;99.90
40822;DHT22;26542;50.836;5.356;2022-08-01T03:04:26;21.20;99.90
40822;DHT22;26542;50.836;5.356;2022-08-01T03:06:56;21.40;99.90
40822;DHT22;26542;50.836;5.356;2022-08-01T03:09:25;21.40;99.90
40822;DHT22;26542;50.836;5.356;2022-08-01T03:11:52;21.40;99.90
40822;DHT22;26542;50.836;5.356;2022-08-01T03:14:21;21.40;99.90
40822;DHT22;26542;50.836;5.356;2022-08-01T03:16:52;21.40;99.90
40822;DHT22;26542;50.836;5.356;2022-08-01T03:19:19;21.40;99.90
40822;DHT22;26542;50.836;5.356;2022-08-01T03:21:51;21.40;99.90
40822;DHT22;26542;50.836;5.356;2022-08-01T03:24:18;21.50;99.90
40822;DHT22;26542;50.836;5.356;2022-08-01T03:26:45;21.40;99.90
40822;DHT22;26542;50.836;5.356;2022-08-01T03:29:17;21.30;99.90
40822;DHT22;26542;50.836;5.356;2022-08-01T03:31:46;21.40;99.90
40822;DHT22;26542;50.836;5.356;2022-08-01T03:34:17;21.40;99.90
40822;DHT22;26542;50.836;5.356;2022-08-01T03:36:48;21.50;99.90
40822;DHT22;26542;50.836;5.356;2022-08-01T03:39:16;21.50;99.90
40822;DHT22;26542;50.836;5.356;2022-08-01T03:41:48;21.40;99.90
40822;DHT22;26542;50.836;5.356;2022-08-01T03:44:17;21.50;99.90
40822;DHT22;26542;50.836;5.356;2022-08-01T03:46:51;21.60;99.90
40822;DHT22;26542;50.836;5.356;2022-08-01T03:49:28;21.40;99.90
40822;DHT22;26542;50.836;5.356;2022-08-01T03:51:55;21.50;99.90
40822;DHT22;26542;50.836;5.356;2022-08-01T03:54:25;21.50;99.90
40822;DHT22;26542;50.836;5.356;2022-08-01T03:56:53;21.60;99.90
40822;DHT22;26542;50.836;5.356;2022-08-01T03:59:20;21.60;99.90
40822;DHT22;26542;50.836;5.356;2022-08-01T04:01:49;21.60;99.90
40822;DHT22;26542;50.836;5.356;2022-08-01T04:04:16;21.50;99.90
40822;DHT22;26542;50.836;5.356;2022-08-01T04:06:42;21.50;99.90
40822;DHT22;26542;50.836;5.356;2022-08-01T04:09:10;21.50;99.90
40822;DHT22;26542;50.836;5.356;2022-08-01T04:11:37;21.50;99.90
40822;DHT22;26542;50.836;5.356;2022-08-01T04:14:03;21.50;99.90
40822;DHT22;26542;50.836;5.356;2022-08-01T04:16:29;21.60;99.90
40822;DHT22;26542;50.836;5.356;2022-08-01T04:18:55;21.40;99.90
40822;DHT22;26542;50.836;5.356;2022-08-01T04:21:26;21.50;99.90
40822;DHT22;26542;50.836;5.356;2022-08-01T04:23:59;21.60;99.90
40822;DHT22;26542;50.836;5.356;2022-08-01T04:26:29;21.60;99.90
40822;DHT22;26542;50.836;5.356;2022-08-01T04:28:56;21.50;99.90
40822;DHT22;26542;50.836;5.356;2022-08-01T04:31:24;21.60;99.90
40822;DHT22;26542;50.836;5.356;2022-08-01T04:33:53;21.60;99.90
40822;DHT22;26542;50.836;5.356;2022-08-01T04:36:23;21.60;99.90
40822;DHT22;26542;50.836;5.356;2022-08-01T04:38:54;21.70;99.90
40822;DHT22;26542;50.836;5.356;2022-08-01T04:41:24;21.60;99.90
40822;DHT22;26542;50.836;5.356;2022-08-01T04:43:52;21.60;99.90
40822;DHT22;26542;50.836;5.356;2022-08-01T04:46:20;21.60;99.90
40822;DHT22;26542;50.836;5.356;2022-08-01T04:48:47;21.60;99.90
40822;DHT22;26542;50.836;5.356;2022-08-01T04:51:16;21.60;99.90
40822;DHT22;26542;50.836;5.356;2022-08-01T04:53:42;21.60;99.90
40822;DHT22;26542;50.836;5.356;2022-08-01T04:56:08;21.60;99.90
40822;DHT22;26542;50.836;5.356;2022-08-01T04:58:41;21.60;99.90
40822;DHT22;26542;50.836;5.356;2022-08-01T05:01:08;21.70;99.90
40822;DHT22;26542;50.836;5.356;2022-08-01T05:03:34;21.70;99.90
40822;DHT22;26542;50.836;5.356;2022-08-01T05:06:01;21.70;99.90
40822;DHT22;26542;50.836;5.356;2022-08-01T05:08:27;21.70;99.90
40822;DHT22;26542;50.836;5.356;2022-08-01T05:10:55;21.80;99.90
40822;DHT22;26542;50.836;5.356;2022-08-01T05:13:21;21.90;99.90
40822;DHT22;26542;50.836;5.356;2022-08-01T05:15:47;22.00;99.90
40822;DHT22;26542;50.836;5.356;2022-08-01T05:18:17;21.90;99.90
40822;DHT22;26542;50.836;5.356;2022-08-01T05:20:43;21.80;99.90
40822;DHT22;26542;50.836;5.356;2022-08-01T05:23:08;21.80;99.90
40822;DHT22;26542;50.836;5.356;2022-08-01T05:25:34;21.80;99.90
40822;DHT22;26542;50.836;5.356;2022-08-01T05:27:59;21.70;99.90
40822;DHT22;26542;50.836;5.356;2022-08-01T05:30:27;21.70;99.90
40822;DHT22;26542;50.836;5.356;2022-08-01T05:32:54;21.70;99.90
40822;DHT22;26542;50.836;5.356;2022-08-01T05:35:19;21.60;99.90
40822;DHT22;26542;50.836;5.356;2022-08-01T05:37:45;21.50;99.90
40822;DHT22;26542;50.836;5.356;2022-08-01T05:40:11;21.40;99.90
40822;DHT22;26542;50.836;5.356;2022-08-01T05:42:39;21.50;99.90
40822;DHT22;26542;50.836;5.356;2022-08-01T05:45:05;21.50;99.90
40822;DHT22;26542;50.836;5.356;2022-08-01T05:47:31;21.50;99.90
40822;DHT22;26542;50.836;5.356;2022-08-01T05:49:57;21.50;99.90
40822;DHT22;26542;50.836;5.356;2022-08-01T05:52:25;21.60;99.90
40822;DHT22;26542;50.836;5.356;2022-08-01T05:54:51;21.70;99.90
40822;DHT22;26542;50.836;5.356;2022-08-01T05:57:17;21.50;99.90
40822;DHT22;26542;50.836;5.356;2022-08-01T05:59:42;21.40;99.90
40822;DHT22;26542;50.836;5.356;2022-08-01T06:02:11;21.40;99.90
40822;DHT22;26542;50.836;5.356;2022-08-01T06:04:37;21.40;99.90
40822;DHT22;26542;50.836;5.356;2022-08-01T06:07:03;21.40;99.90
40822;DHT22;26542;50.836;5.356;2022-08-01T06:09:28;21.40;99.90
40822;DHT22;26542;50.836;5.356;2022-08-01T06:11:56;21.40;99.90
40822;DHT22;26542;50.836;5.356;2022-08-01T06:14:26;21.30;99.90
40822;DHT22;26542;50.836;5.356;2022-08-01T06:16:52;21.30;99.90
40822;DHT22;26542;50.836;5.356;2022-08-01T06:19:19;21.20;99.90
40822;DHT22;26542;50.836;5.356;2022-08-01T06:21:49;21.20;99.90
40822;DHT22;26542;50.836;5.356;2022-08-01T06:24:15;21.30;99.90
40822;DHT22;26542;50.836;5.356;2022-08-01T06:26:44;21.10;99.90
40822;DHT22;26542;50.836;5.356;2022-08-01T06:29:10;21.20;99.90
40822;DHT22;26542;50.836;5.356;2022-08-01T06:31:38;21.10;99.90
40822;DHT22;26542;50.836;5.356;2022-08-01T06:34:03;21.10;99.90
40822;DHT22;26542;50.836;5.356;2022-08-01T06:36:29;21.00;99.90
40822;DHT22;26542;50.836;5.356;2022-08-01T06:38:56;21.10;99.90
40822;DHT22;26542;50.836;5.356;2022-08-01T06:41:24;21.10;99.90
40822;DHT22;26542;50.836;5.356;2022-08-01T06:43:50;21.00;99.90
40822;DHT22;26542;50.836;5.356;2022-08-01T06:46:18;21.00;99.90
40822;DHT22;26542;50.836;5.356;2022-08-01T06:48:43;21.00;99.90
40822;DHT22;26542;50.836;5.356;2022-08-01T06:51:09;21.20;99.90
40822;DHT22;26542;50.836;5.356;2022-08-01T06:53:37;21.20;99.90
40822;DHT22;26542;50.836;5.356;2022-08-01T06:56:06;21.20;99.90
40822;DHT22;26542;50.836;5.356;2022-08-01T06:58:32;21.30;99.90
40822;DHT22;26542;50.836;5.356;2022-08-01T07:00:59;21.30;99.90
40822;DHT22;26542;50.836;5.356;2022-08-01T07:03:25;21.40;99.90
40822;DHT22;26542;50.836;5.356;2022-08-01T07:05:52;21.40;99.90
40822;DHT22;26542;50.836;5.356;2022-08-01T07:08:18;21.40;99.90
40822;DHT22;26542;50.836;5.356;2022-08-01T07:10:46;21.30;99.90
40822;DHT22;26542;50.836;5.356;2022-08-01T07:13:11;21.40;99.90
40822;DHT22;26542;50.836;5.356;2022-08-01T07:15:37;21.50;99.90
40822;DHT22;26542;50.836;5.356;2022-08-01T07:18:03;21.50;99.90
40822;DHT22;26542;50.836;5.356;2022-08-01T07:20:30;21.50;99.90
40822;DHT22;26542;50.836;5.356;2022-08-01T07:22:55;21.40;99.90
40822;DHT22;26542;50.836;5.356;2022-08-01T07:25:21;21.40;99.90
40822;DHT22;26542;50.836;5.356;2022-08-01T07:27:49;21.60;99.90
40822;DHT22;26542;50.836;5.356;2022-08-01T07:30:15;21.80;99.90
40822;DHT22;26542;50.836;5.356;2022-08-01T07:32:43;21.80;99.90
40822;DHT22;26542;50.836;5.356;2022-08-01T07:35:10;21.90;99.90
40822;DHT22;26542;50.836;5.356;2022-08-01T07:37:35;21.90;99.90
40822;DHT22;26542;50.836;5.356;2022-08-01T07:40:01;21.90;99.90
40822;DHT22;26542;50.836;5.356;2022-08-01T07:42:29;22.00;99.90
40822;DHT22;26542;50.836;5.356;2022-08-01T07:44:58;22.10;99.90
40822;DHT22;26542;50.836;5.356;2022-08-01T07:47:25;22.10;99.90
40822;DHT22;26542;50.836;5.356;2022-08-01T07:49:59;22.20;99.90
40822;DHT22;26542;50.836;5.356;2022-08-01T07:52:28;22.30;99.90
40822;DHT22;26542;50.836;5.356;2022-08-01T07:54:56;22.40;99.90
40822;DHT22;26542;50.836;5.356;2022-08-01T07:57:23;22.40;99.90
40822;DHT22;26542;50.836;5.356;2022-08-01T07:59:49;22.60;99.90
40822;DHT22;26542;50.836;5.356;2022-08-01T08:02:15;22.60;99.90
40822;DHT22;26542;50.836;5.356;2022-08-01T08:04:41;22.60;99.90
40822;DHT22;26542;50.836;5.356;2022-08-01T08:07:09;22.50;99.90
40822;DHT22;26542;50.836;5.356;2022-08-01T08:09:35;22.60;99.90
40822;DHT22;26542;50.836;5.356;2022-08-01T08:12:04;22.60;99.90
40822;DHT22;26542;50.836;5.356;2022-08-01T08:14:30;22.60;99.90
40822;DHT22;26542;50.836;5.356;2022-08-01T08:16:56;22.70;99.90
40822;DHT22;26542;50.836;5.356;2022-08-01T08:19:22;22.70;99.90
40822;DHT22;26542;50.836;5.356;2022-08-01T08:21:47;22.60;99.90
40822;DHT22;26542;50.836;5.356;2022-08-01T08:24:13;22.70;99.90
40822;DHT22;26542;50.836;5.356;2022-08-01T08:26:53;22.70;99.90
40822;DHT22;26542;50.836;5.356;2022-08-01T08:29:20;22.80;99.80
40822;DHT22;26542;50.836;5.356;2022-08-01T08:31:47;22.80;99.90
40822;DHT22;26542;50.836;5.356;2022-08-01T08:34:13;22.90;99.90
40822;DHT22;26542;50.836;5.356;2022-08-01T08:36:39;23.00;99.90
40822;DHT22;26542;50.836;5.356;2022-08-01T08:39:05;23.10;99.90
40822;DHT22;26542;50.836;5.356;2022-08-01T08:41:34;23.10;99.70
40822;DHT22;26542;50.836;5.356;2022-08-01T08:44:07;23.30;99.40
40822;DHT22;26542;50.836;5.356;2022-08-01T08:46:34;23.30;99.80
40822;DHT22;26542;50.836;5.356;2022-08-01T08:49:06;23.30;99.70
40822;DHT22;26542;50.836;5.356;2022-08-01T08:51:34;23.60;99.70
40822;DHT22;26542;50.836;5.356;2022-08-01T08:54:03;23.70;99.70
40822;DHT22;26542;50.836;5.356;2022-08-01T08:56:30;23.90;98.50
40822;DHT22;26542;50.836;5.356;2022-08-01T08:59:02;24.40;97.70
40822;DHT22;26542;50.836;5.356;2022-08-01T09:01:28;24.40;96.40
40822;DHT22;26542;50.836;5.356;2022-08-01T09:03:54;24.60;96.10
40822;DHT22;26542;50.836;5.356;2022-08-01T09:06:20;24.70;95.60
40822;DHT22;26542;50.836;5.356;2022-08-01T09:08:46;24.80;94.90
40822;DHT22;26542;50.836;5.356;2022-08-01T09:11:13;24.90;94.50
40822;DHT22;26542;50.836;5.356;2022-08-01T09:13:39;25.00;94.60
40822;DHT22;26542;50.836;5.356;2022-08-01T09:16:05;25.00;94.00
40822;DHT22;26542;50.836;5.356;2022-08-01T09:18:39;25.20;94.70
40822;DHT22;26542;50.836;5.356;2022-08-01T09:23:33;25.60;93.70
40822;DHT22;26542;50.836;5.356;2022-08-01T09:25:59;25.60;94.10
40822;DHT22;26542;50.836;5.356;2022-08-01T09:28:29;25.60;93.30
40822;DHT22;26542;50.836;5.356;2022-08-01T09:30:58;25.70;93.50
40822;DHT22;26542;50.836;5.356;2022-08-01T09:33:24;25.60;92.50
40822;DHT22;26542;50.836;5.356;2022-08-01T09:35:59;25.70;91.80
40822;DHT22;26542;50.836;5.356;2022-08-01T09:38:26;25.50;91.90
40822;DHT22;26542;50.836;5.356;2022-08-01T09:40:53;25.50;92.00
40822;DHT22;26542;50.836;5.356;2022-08-01T09:43:20;25.50;92.20
40822;DHT22;26542;50.836;5.356;2022-08-01T09:45:47;25.60;92.10
40822;DHT22;26542;50.836;5.356;2022-08-01T09:48:13;25.60;91.00
40822;DHT22;26542;50.836;5.356;2022-08-01T09:50:43;25.60;91.20
40822;DHT22;26542;50.836;5.356;2022-08-01T09:53:10;25.70;91.90
40822;DHT22;26542;50.836;5.356;2022-08-01T09:55:41;25.90;91.30
40822;DHT22;26542;50.836;5.356;2022-08-01T09:58:18;26.20;91.10
40822;DHT22;26542;50.836;5.356;2022-08-01T10:00:58;26.50;90.70
40822;DHT22;26542;50.836;5.356;2022-08-01T10:03:29;26.70;90.80
40822;DHT22;26542;50.836;5.356;2022-08-01T10:05:55;26.50;90.50
40822;DHT22;26542;50.836;5.356;2022-08-01T10:08:22;26.50;90.30
40822;DHT22;26542;50.836;5.356;2022-08-01T10:11:10;26.70;90.50
40822;DHT22;26542;50.836;5.356;2022-08-01T10:13:36;26.70;90.70
40822;DHT22;26542;50.836;5.356;2022-08-01T10:16:02;26.70;90.20
40822;DHT22;26542;50.836;5.356;2022-08-01T10:18:32;26.60;89.70
40822;DHT22;26542;50.836;5.356;2022-08-01T10:21:02;26.50;88.90
40822;DHT22;26542;50.836;5.356;2022-08-01T10:23:34;26.60;88.30
40822;DHT22;26542;50.836;5.356;2022-08-01T10:26:01;26.60;88.90
40822;DHT22;26542;50.836;5.356;2022-08-01T10:28:31;26.60;89.80
40822;DHT22;26542;50.836;5.356;2022-08-01T10:30:58;26.50;90.20
40822;DHT22;26542;50.836;5.356;2022-08-01T10:33:24;26.50;90.00
40822;DHT22;26542;50.836;5.356;2022-08-01T10:35:52;26.60;90.80
40822;DHT22;26542;50.836;5.356;2022-08-01T10:38:18;26.70;89.50
40822;DHT22;26542;50.836;5.356;2022-08-01T10:40:44;26.60;89.60
40822;DHT22;26542;50.836;5.356;2022-08-01T10:43:12;26.60;90.30
40822;DHT22;26542;50.836;5.356;2022-08-01T10:45:42;26.60;89.00
40822;DHT22;26542;50.836;5.356;2022-08-01T10:48:16;26.70;89.60
40822;DHT22;26542;50.836;5.356;2022-08-01T10:50:49;26.80;89.70
40822;DHT22;26542;50.836;5.356;2022-08-01T10:53:26;26.80;88.10
40822;DHT22;26542;50.836;5.356;2022-08-01T10:58:31;26.80;86.40
40822;DHT22;26542;50.836;5.356;2022-08-01T11:04:11;26.80;86.30
40822;DHT22;26542;50.836;5.356;2022-08-01T11:06:49;26.80;85.40
40822;DHT22;26542;50.836;5.356;2022-08-01T11:09:26;26.80;86.40
40822;DHT22;26542;50.836;5.356;2022-08-01T11:12:09;26.90;83.30
40822;DHT22;26542;50.836;5.356;2022-08-01T11:17:34;27.30;84.30
40822;DHT22;26542;50.836;5.356;2022-08-01T11:22:30;27.80;84.30
40822;DHT22;26542;50.836;5.356;2022-08-01T11:24:56;27.90;81.90
40822;DHT22;26542;50.836;5.356;2022-08-01T11:27:28;28.00;83.00
40822;DHT22;26542;50.836;5.356;2022-08-01T11:32:49;28.00;80.60
40822;DHT22;26542;50.836;5.356;2022-08-01T11:35:16;28.00;83.00
40822;DHT22;26542;50.836;5.356;2022-08-01T11:37:43;28.10;80.10
40822;DHT22;26542;50.836;5.356;2022-08-01T11:42:45;28.20;81.70
40822;DHT22;26542;50.836;5.356;2022-08-01T11:45:12;28.30;81.20
40822;DHT22;26542;50.836;5.356;2022-08-01T11:47:48;28.50;81.80
40822;DHT22;26542;50.836;5.356;2022-08-01T11:50:31;28.40;80.10
40822;DHT22;26542;50.836;5.356;2022-08-01T11:53:04;28.10;81.90
40822;DHT22;26542;50.836;5.356;2022-08-01T11:55:30;28.00;81.80
40822;DHT22;26542;50.836;5.356;2022-08-01T11:58:05;28.00;82.40
40822;DHT22;26542;50.836;5.356;2022-08-01T12:00:33;27.80;81.50
40822;DHT22;26542;50.836;5.356;2022-08-01T12:03:01;27.70;81.50
40822;DHT22;26542;50.836;5.356;2022-08-01T12:05:29;27.60;80.50
40822;DHT22;26542;50.836;5.356;2022-08-01T12:07:56;27.70;80.40
40822;DHT22;26542;50.836;5.356;2022-08-01T12:10:25;27.80;81.90
40822;DHT22;26542;50.836;5.356;2022-08-01T12:12:54;27.90;80.20
40822;DHT22;26542;50.836;5.356;2022-08-01T12:15:24;27.90;80.90
40822;DHT22;26542;50.836;5.356;2022-08-01T12:17:59;28.10;81.40
40822;DHT22;26542;50.836;5.356;2022-08-01T12:20:36;28.20;80.50
40822;DHT22;26542;50.836;5.356;2022-08-01T12:23:04;28.30;80.20
40822;DHT22;26542;50.836;5.356;2022-08-01T12:25:31;28.50;78.90
40822;DHT22;26542;50.836;5.356;2022-08-01T12:28:02;28.60;79.60
40822;DHT22;26542;50.836;5.356;2022-08-01T12:30:28;28.70;79.50
40822;DHT22;26542;50.836;5.356;2022-08-01T12:32:56;29.00;79.10
40822;DHT22;26542;50.836;5.356;2022-08-01T12:35:27;29.20;76.80
40822;DHT22;26542;50.836;5.356;2022-08-01T12:38:13;29.30;79.80
40822;DHT22;26542;50.836;5.356;2022-08-01T12:40:44;29.40;76.60
40822;DHT22;26542;50.836;5.356;2022-08-01T12:43:18;29.20;77.40
40822;DHT22;26542;50.836;5.356;2022-08-01T12:45:45;29.10;75.80
40822;DHT22;26542;50.836;5.356;2022-08-01T12:48:14;29.10;76.50
40822;DHT22;26542;50.836;5.356;2022-08-01T12:50:50;29.10;77.20
40822;DHT22;26542;50.836;5.356;2022-08-01T12:53:19;29.20;76.10
40822;DHT22;26542;50.836;5.356;2022-08-01T12:55:50;29.50;77.90
40822;DHT22;26542;50.836;5.356;2022-08-01T12:58:18;29.70;74.20
40822;DHT22;26542;50.836;5.356;2022-08-01T13:00:49;29.70;74.20
40822;DHT22;26542;50.836;5.356;2022-08-01T13:03:17;29.60;74.50
40822;DHT22;26542;50.836;5.356;2022-08-01T13:06:05;29.30;74.70
40822;DHT22;26542;50.836;5.356;2022-08-01T13:08:35;29.10;75.30
40822;DHT22;26542;50.836;5.356;2022-08-01T13:11:05;29.10;75.40
40822;DHT22;26542;50.836;5.356;2022-08-01T13:13:45;29.20;74.70
40822;DHT22;26542;50.836;5.356;2022-08-01T13:16:16;29.30;75.30
40822;DHT22;26542;50.836;5.356;2022-08-01T13:18:48;29.60;75.60
40822;DHT22;26542;50.836;5.356;2022-08-01T13:21:18;29.80;73.60
40822;DHT22;26542;50.836;5.356;2022-08-01T13:24:03;30.00;75.80
40822;DHT22;26542;50.836;5.356;2022-08-01T13:26:49;30.10;73.60
40822;DHT22;26542;50.836;5.356;2022-08-01T13:29:17;30.10;74.80
40822;DHT22;26542;50.836;5.356;2022-08-01T13:31:45;29.80;72.50
40822;DHT22;26542;50.836;5.356;2022-08-01T13:34:13;29.50;73.60
40822;DHT22;26542;50.836;5.356;2022-08-01T13:36:39;29.20;74.20
40822;DHT22;26542;50.836;5.356;2022-08-01T13:39:05;29.30;76.00
40822;DHT22;26542;50.836;5.356;2022-08-01T13:41:51;29.30;75.00
40822;DHT22;26542;50.836;5.356;2022-08-01T13:44:16;29.30;74.10
40822;DHT22;26542;50.836;5.356;2022-08-01T13:46:45;29.30;73.90
40822;DHT22;26542;50.836;5.356;2022-08-01T13:49:13;29.30;76.60
40822;DHT22;26542;50.836;5.356;2022-08-01T13:51:39;29.40;73.60
40822;DHT22;26542;50.836;5.356;2022-08-01T13:54:07;29.50;74.40
40822;DHT22;26542;50.836;5.356;2022-08-01T13:56:33;29.50;73.10
40822;DHT22;26542;50.836;5.356;2022-08-01T13:58:59;29.60;73.00
40822;DHT22;26542;50.836;5.356;2022-08-01T14:01:25;29.50;72.50
40822;DHT22;26542;50.836;5.356;2022-08-01T14:03:51;29.50;75.00
40822;DHT22;26542;50.836;5.356;2022-08-01T14:06:18;29.80;73.40
40822;DHT22;26542;50.836;5.356;2022-08-01T14:08:45;29.90;74.70
40822;DHT22;26542;50.836;5.356;2022-08-01T14:11:14;30.00;73.50
40822;DHT22;26542;50.836;5.356;2022-08-01T14:13:42;30.20;74.40
40822;DHT22;26542;50.836;5.356;2022-08-01T14:16:08;30.30;73.40
40822;DHT22;26542;50.836;5.356;2022-08-01T14:18:33;30.50;75.10
40822;DHT22;26542;50.836;5.356;2022-08-01T14:20:59;30.50;71.60
40822;DHT22;26542;50.836;5.356;2022-08-01T14:23:26;30.30;70.40
40822;DHT22;26542;50.836;5.356;2022-08-01T14:25:51;30.00;70.60
40822;DHT22;26542;50.836;5.356;2022-08-01T14:28:17;29.70;72.40
40822;DHT22;26542;50.836;5.356;2022-08-01T14:30:46;29.50;71.50
40822;DHT22;26542;50.836;5.356;2022-08-01T14:33:12;29.50;71.80
40822;DHT22;26542;50.836;5.356;2022-08-01T14:35:39;29.60;72.70
40822;DHT22;26542;50.836;5.356;2022-08-01T14:38:08;29.70;71.30
40822;DHT22;26542;50.836;5.356;2022-08-01T14:40:38;29.60;72.70
40822;DHT22;26542;50.836;5.356;2022-08-01T14:43:04;29.60;74.60
40822;DHT22;26542;50.836;5.356;2022-08-01T14:45:29;29.70;72.80
40822;DHT22;26542;50.836;5.356;2022-08-01T14:47:58;29.90;72.40
40822;DHT22;26542;50.836;5.356;2022-08-01T14:50:24;30.10;72.40
40822;DHT22;26542;50.836;5.356;2022-08-01T14:52:54;30.20;73.30
40822;DHT22;26542;50.836;5.356;2022-08-01T14:55:26;30.30;72.70
40822;DHT22;26542;50.836;5.356;2022-08-01T14:57:52;30.30;73.40
40822;DHT22;26542;50.836;5.356;2022-08-01T15:00:19;30.30;73.30
40822;DHT22;26542;50.836;5.356;2022-08-01T15:02:45;30.10;73.90
40822;DHT22;26542;50.836;5.356;2022-08-01T15:05:11;30.00;74.10
40822;DHT22;26542;50.836;5.356;2022-08-01T15:07:37;29.80;73.20
40822;DHT22;26542;50.836;5.356;2022-08-01T15:10:07;29.70;73.20
40822;DHT22;26542;50.836;5.356;2022-08-01T15:12:33;29.40;74.20
40822;DHT22;26542;50.836;5.356;2022-08-01T15:15:02;29.20;74.40
40822;DHT22;26542;50.836;5.356;2022-08-01T15:17:30;29.00;74.20
40822;DHT22;26542;50.836;5.356;2022-08-01T15:19:58;28.90;74.00
40822;DHT22;26542;50.836;5.356;2022-08-01T15:22:25;28.80;76.80
40822;DHT22;26542;50.836;5.356;2022-08-01T15:24:53;28.60;76.00
40822;DHT22;26542;50.836;5.356;2022-08-01T15:27:19;28.70;77.00
40822;DHT22;26542;50.836;5.356;2022-08-01T15:29:46;28.70;74.60
40822;DHT22;26542;50.836;5.356;2022-08-01T15:32:12;28.70;74.50
40822;DHT22;26542;50.836;5.356;2022-08-01T15:34:38;28.60;74.10
40822;DHT22;26542;50.836;5.356;2022-08-01T15:37:05;28.50;74.00
40822;DHT22;26542;50.836;5.356;2022-08-01T15:39:32;28.60;74.50
40822;DHT22;26542;50.836;5.356;2022-08-01T15:42:18;28.80;75.90
40822;DHT22;26542;50.836;5.356;2022-08-01T15:44:44;29.10;74.20
40822;DHT22;26542;50.836;5.356;2022-08-01T15:47:10;29.30;73.60
40822;DHT22;26542;50.836;5.356;2022-08-01T15:49:37;29.30;73.90
40822;DHT22;26542;50.836;5.356;2022-08-01T15:52:05;29.30;73.10
40822;DHT22;26542;50.836;5.356;2022-08-01T15:54:32;29.30;72.70
40822;DHT22;26542;50.836;5.356;2022-08-01T15:57:02;29.20;74.10
40822;DHT22;26542;50.836;5.356;2022-08-01T15:59:41;29.20;72.70
40822;DHT22;26542;50.836;5.356;2022-08-01T16:02:27;29.30;74.40
40822;DHT22;26542;50.836;5.356;2022-08-01T16:04:55;29.50;72.70
40822;DHT22;26542;50.836;5.356;2022-08-01T16:07:21;29.40;72.60
40822;DHT22;26542;50.836;5.356;2022-08-01T16:09:47;29.50;72.20
40822;DHT22;26542;50.836;5.356;2022-08-01T16:12:14;29.50;70.80
40822;DHT22;26542;50.836;5.356;2022-08-01T16:14:40;29.60;71.30